Time,TemperatureF,DewpointF,PressureIn,WindDirection,WindDirectionDegrees,WindSpeedMPH,WindSpeedGustMPH,Humidity,HourlyPrecipIn,Conditions,Clouds,dailyrainin,SolarRadiationWatts/m^2,SoftwareType,DateUTC
2013-03-31 00:02:00,51.0,35.0,-100.00,NNE,15,7.0,14.0,55,0.00,,,0.00,0.000000,,2013-03-31 07:02:00,
2013-03-31 00:53:00,51.0,34.0,-100.00,NE,48,13.0,17.0,51,-99.99,,,0.00,0.000000,,2013-03-31 07:53:00,
2013-03-31 01:02:00,51.0,34.0,-100.00,NE,48,13.0,17.0,51,-99.99,,,0.00,0.000000,,2013-03-31 08:02:00,
2013-03-31 01:12:00,51.0,34.0,-100.00,NE,48,13.0,17.0,51,-99.99,,,0.00,0.000000,,2013-03-31 08:12:00,
2013-03-31 01:22:00,51.0,34.0,-100.00,NE,48,13.0,17.0,51,-99.99,,,0.00,0.000000,,2013-03-31 08:22:00,
2013-03-31 01:32:00,51.0,34.0,-100.00,NE,48,13.0,17.0,51,-99.99,,,0.00,0.000000,,2013-03-31 08:32:00,
2013-03-31 01:52:00,50.0,32.0,-100.00,NE,53,16.0,20.0,50,-99.99,,,-99.99,0.000000,,2013-03-31 08:52:00,
2013-03-31 02:01:00,50.0,32.0,-100.00,NE,53,16.0,20.0,50,-99.99,,,-99.99,0.000000,,2013-03-31 09:01:00,
2013-03-31 02:53:00,50.0,32.0,-100.00,ENE,59,17.0,22.0,49,0.00,,,0.00,0.000000,,2013-03-31 09:53:00,
2013-03-31 03:03:00,50.0,32.0,-100.00,ENE,59,17.0,22.0,49,0.00,,,0.00,0.000000,,2013-03-31 10:03:00,
2013-03-31 03:53:00,50.0,31.0,-100.00,ENE,57,16.0,22.0,47,0.00,,,0.00,0.000000,,2013-03-31 10:53:00,
2013-03-31 04:02:00,50.0,31.0,-100.00,ENE,57,16.0,22.0,47,0.00,,,0.00,0.000000,,2013-03-31 11:02:00,
2013-03-31 04:52:00,49.0,29.0,-100.00,NE,55,15.0,22.0,46,-99.99,,,0.00,0.000000,,2013-03-31 11:52:00,
2013-03-31 05:02:00,49.0,29.0,-100.00,NE,55,15.0,22.0,46,-99.99,,,0.00,0.000000,,2013-03-31 12:02:00,
2013-03-31 05:53:00,49.0,29.0,-100.00,ENE,57,18.0,25.0,46,-99.99,,,0.00,0.000000,,2013-03-31 12:53:00,
2013-03-31 06:02:00,49.0,29.0,-100.00,ENE,57,18.0,25.0,46,-99.99,,,0.00,0.000000,,2013-03-31 13:02:00,
2013-03-31 06:53:00,48.0,30.0,-100.00,ENE,57,11.0,21.0,50,-99.99,,,0.00,0.000000,,2013-03-31 13:53:00,
2013-03-31 07:02:00,48.0,30.0,-100.00,ENE,57,11.0,21.0,50,-99.99,,,0.00,0.000000,,2013-03-31 14:02:00,
2013-03-31 07:52:00,48.0,33.0,-100.00,ENE,61,16.0,21.0,55,-99.99,,,0.00,32.000000,,2013-03-31 14:52:00,
2013-03-31 08:02:00,48.0,33.0,-100.00,ENE,61,16.0,21.0,55,-99.99,,,0.00,32.000000,,2013-03-31 15:02:00,
2013-03-31 08:54:00,52.0,34.0,-100.00,ENE,75,9.0,24.0,51,-99.99,,,0.00,152.000000,,2013-03-31 15:54:00,
2013-03-31 09:03:00,52.0,34.0,-100.00,ENE,75,9.0,24.0,51,-99.99,,,0.00,152.000000,,2013-03-31 16:03:00,
2013-03-31 09:53:00,52.0,34.0,-100.00,East,79,9.0,18.0,50,-99.99,,,0.00,362.000000,,2013-03-31 16:53:00,
2013-03-31 10:02:00,52.0,34.0,-100.00,East,79,9.0,18.0,50,-99.99,,,0.00,362.000000,,2013-03-31 17:02:00,
2013-03-31 10:12:00,52.0,34.0,-100.00,East,79,9.0,18.0,50,-99.99,,,0.00,362.000000,,2013-03-31 17:12:00,
2013-03-31 10:22:00,52.0,34.0,-100.00,East,79,9.0,18.0,50,-99.99,,,0.00,362.000000,,2013-03-31 17:22:00,
2013-03-31 10:32:00,52.0,34.0,-100.00,East,79,9.0,18.0,50,-99.99,,,0.00,362.000000,,2013-03-31 17:32:00,
2013-03-31 10:52:00,53.0,35.0,-100.00,ENE,60,10.0,18.0,50,0.00,,,0.00,542.000000,,2013-03-31 17:52:00,
2013-03-31 11:02:00,53.0,35.0,-100.00,ENE,60,10.0,18.0,50,0.00,,,0.00,542.000000,,2013-03-31 18:02:00,
2013-03-31 11:12:00,53.0,35.0,-100.00,ENE,60,10.0,18.0,50,0.00,,,0.00,542.000000,,2013-03-31 18:12:00,
2013-03-31 11:22:00,53.0,35.0,-100.00,ENE,60,10.0,18.0,50,0.00,,,0.00,542.000000,,2013-03-31 18:22:00,
2013-03-31 11:32:00,53.0,35.0,-100.00,ENE,60,10.0,18.0,50,0.00,,,0.00,542.000000,,2013-03-31 18:32:00,
2013-03-31 11:53:00,56.0,37.0,-100.00,East,95,7.0,16.0,48,0.00,,,0.00,662.000000,,2013-03-31 18:53:00,
2013-03-31 12:03:00,56.0,37.0,-100.00,East,95,7.0,16.0,48,0.00,,,0.00,662.000000,,2013-03-31 19:03:00,
2013-03-31 12:12:00,56.0,37.0,-100.00,East,95,7.0,16.0,48,0.00,,,0.00,662.000000,,2013-03-31 19:12:00,
2013-03-31 12:22:00,56.0,37.0,-100.00,East,95,7.0,16.0,48,0.00,,,0.00,662.000000,,2013-03-31 19:22:00,
2013-03-31 12:32:00,56.0,37.0,-100.00,East,95,7.0,16.0,48,0.00,,,0.00,662.000000,,2013-03-31 19:32:00,
2013-03-31 12:54:00,57.0,36.0,-100.00,East,91,7.0,13.0,45,0.00,,,0.00,721.000000,,2013-03-31 19:54:00,
2013-03-31 13:02:00,57.0,36.0,-100.00,East,91,7.0,13.0,45,0.00,,,0.00,721.000000,,2013-03-31 20:02:00,
2013-03-31 13:12:00,57.0,36.0,-100.00,East,91,7.0,13.0,45,0.00,,,0.00,721.000000,,2013-03-31 20:12:00,
2013-03-31 13:22:00,57.0,36.0,-100.00,East,91,7.0,13.0,45,0.00,,,0.00,721.000000,,2013-03-31 20:22:00,
2013-03-31 13:32:00,57.0,36.0,-100.00,East,91,7.0,13.0,45,0.00,,,0.00,721.000000,,2013-03-31 20:32:00,
2013-03-31 13:53:00,60.0,38.0,-100.00,NNE,30,8.0,14.0,44,0.00,,,0.00,767.000000,,2013-03-31 20:53:00,
2013-03-31 14:02:00,60.0,38.0,-100.00,NNE,30,8.0,14.0,44,0.00,,,0.00,767.000000,,2013-03-31 21:02:00,
2013-03-31 14:12:00,60.0,38.0,-100.00,NNE,30,8.0,14.0,44,0.00,,,0.00,767.000000,,2013-03-31 21:12:00,
2013-03-31 14:22:00,60.0,38.0,-100.00,NNE,30,8.0,14.0,44,0.00,,,0.00,767.000000,,2013-03-31 21:22:00,
2013-03-31 14:33:00,60.0,38.0,-100.00,NNE,30,8.0,14.0,44,0.00,,,0.00,767.000000,,2013-03-31 21:33:00,
2013-03-31 14:53:00,61.0,37.0,-100.00,NNE,19,6.0,12.0,41,0.00,,,0.00,722.000000,,2013-03-31 21:53:00,
2013-03-31 15:03:00,61.0,37.0,-100.00,NNE,19,6.0,12.0,41,0.00,,,0.00,722.000000,,2013-03-31 22:03:00,
2013-03-31 15:13:00,61.0,37.0,-100.00,NNE,19,6.0,12.0,41,0.00,,,0.00,722.000000,,2013-03-31 22:13:00,
2013-03-31 15:23:00,61.0,37.0,-100.00,NNE,19,6.0,12.0,41,0.00,,,0.00,722.000000,,2013-03-31 22:23:00,
2013-03-31 15:32:00,61.0,37.0,-100.00,NNE,19,6.0,12.0,41,0.00,,,0.00,722.000000,,2013-03-31 22:32:00,
2013-03-31 15:53:00,60.0,34.0,-100.00,NNE,18,9.0,17.0,38,0.00,,,0.00,680.000000,,2013-03-31 22:53:00,
2013-03-31 16:02:00,60.0,34.0,-100.00,NNE,18,9.0,17.0,38,0.00,,,0.00,680.000000,,2013-03-31 23:02:00,
2013-03-31 16:12:00,60.0,34.0,-100.00,NNE,18,9.0,17.0,38,0.00,,,0.00,680.000000,,2013-03-31 23:12:00,
2013-03-31 16:22:00,60.0,34.0,-100.00,NNE,18,9.0,17.0,38,0.00,,,0.00,680.000000,,2013-03-31 23:22:00,
2013-03-31 16:32:00,60.0,34.0,-100.00,NNE,18,9.0,17.0,38,0.00,,,0.00,680.000000,,2013-03-31 23:32:00,
2013-03-31 16:53:00,58.0,34.0,-100.00,NNE,20,9.0,18.0,40,0.00,,,0.00,382.000000,,2013-03-31 23:53:00,
2013-03-31 17:02:00,58.0,34.0,-100.00,NNE,20,9.0,18.0,40,0.00,,,0.00,382.000000,,2013-04-01 00:02:00,
2013-03-31 17:12:00,58.0,34.0,-100.00,NNE,20,9.0,18.0,40,0.00,,,0.00,382.000000,,2013-04-01 00:12:00,
2013-03-31 17:22:00,58.0,34.0,-100.00,NNE,20,9.0,18.0,40,0.00,,,0.00,382.000000,,2013-04-01 00:22:00,
2013-03-31 17:31:00,58.0,34.0,-100.00,NNE,20,9.0,18.0,40,0.00,,,0.00,382.000000,,2013-04-01 00:31:00,
2013-03-31 17:53:00,56.0,33.0,-100.00,NNE,23,12.0,20.0,42,0.00,,,0.00,57.000000,,2013-04-01 00:53:00,
2013-03-31 18:02:00,56.0,33.0,-100.00,NNE,23,12.0,20.0,42,0.00,,,0.00,57.000000,,2013-04-01 01:02:00,
2013-03-31 18:12:00,56.0,33.0,-100.00,NNE,23,12.0,20.0,42,0.00,,,0.00,57.000000,,2013-04-01 01:12:00,
2013-03-31 18:22:00,56.0,33.0,-100.00,NNE,23,12.0,20.0,42,0.00,,,0.00,57.000000,,2013-04-01 01:22:00,
2013-03-31 18:32:00,56.0,33.0,-100.00,NNE,23,12.0,20.0,42,0.00,,,0.00,57.000000,,2013-04-01 01:32:00,
2013-03-31 18:53:00,56.0,33.0,-100.00,NNE,13,8.0,21.0,42,0.00,,,0.00,147.000000,,2013-04-01 01:53:00,
2013-03-31 19:02:00,56.0,33.0,-100.00,NNE,13,8.0,21.0,42,0.00,,,0.00,147.000000,,2013-04-01 02:02:00,
2013-03-31 19:12:00,56.0,33.0,-100.00,NNE,13,8.0,21.0,42,0.00,,,0.00,147.000000,,2013-04-01 02:12:00,
2013-03-31 19:22:00,56.0,33.0,-100.00,NNE,13,8.0,21.0,42,0.00,,,0.00,147.000000,,2013-04-01 02:22:00,
2013-03-31 19:32:00,56.0,33.0,-100.00,NNE,13,8.0,21.0,42,0.00,,,0.00,147.000000,,2013-04-01 02:32:00,
2013-03-31 19:53:00,53.0,32.0,-100.00,North,11,7.0,19.0,44,0.00,,,0.00,46.000000,,2013-04-01 02:53:00,
2013-03-31 20:02:00,53.0,32.0,-100.00,North,11,7.0,19.0,44,0.00,,,0.00,46.000000,,2013-04-01 03:02:00,
2013-03-31 20:12:00,53.0,32.0,-100.00,North,11,7.0,19.0,44,0.00,,,0.00,46.000000,,2013-04-01 03:12:00,
2013-03-31 20:22:00,53.0,32.0,-100.00,North,11,7.0,19.0,44,0.00,,,0.00,46.000000,,2013-04-01 03:22:00,
2013-03-31 20:33:00,53.0,32.0,-100.00,North,11,7.0,19.0,44,0.00,,,0.00,46.000000,,2013-04-01 03:33:00,
2013-03-31 20:53:00,51.0,31.0,-100.00,North,9,8.0,20.0,46,0.00,,,0.00,0.000000,,2013-04-01 03:53:00,
2013-03-31 21:02:00,51.0,31.0,-100.00,North,9,8.0,20.0,46,0.00,,,0.00,0.000000,,2013-04-01 04:02:00,
2013-03-31 21:13:00,51.0,31.0,-100.00,North,9,8.0,20.0,46,0.00,,,0.00,0.000000,,2013-04-01 04:13:00,
2013-03-31 21:23:00,51.0,31.0,-100.00,North,9,8.0,20.0,46,0.00,,,0.00,0.000000,,2013-04-01 04:23:00,
2013-03-31 21:32:00,51.0,31.0,-100.00,North,9,8.0,20.0,46,0.00,,,0.00,0.000000,,2013-04-01 04:32:00,
2013-03-31 21:53:00,49.0,30.0,-100.00,North,3,4.0,11.0,48,0.00,,,0.00,0.000000,,2013-04-01 04:53:00,
2013-03-31 22:02:00,49.0,30.0,-100.00,North,3,4.0,11.0,48,0.00,,,0.00,0.000000,,2013-04-01 05:02:00,
2013-03-31 22:12:00,49.0,30.0,-100.00,North,3,4.0,11.0,48,0.00,,,0.00,0.000000,,2013-04-01 05:12:00,
2013-03-31 22:22:00,49.0,30.0,-100.00,North,3,4.0,11.0,48,0.00,,,0.00,0.000000,,2013-04-01 05:22:00,
2013-03-31 22:32:00,49.0,30.0,-100.00,North,3,4.0,11.0,48,0.00,,,0.00,0.000000,,2013-04-01 05:32:00,
2013-03-31 22:53:00,48.0,30.0,-100.00,North,356,2.0,13.0,50,0.00,,,0.00,0.000000,,2013-04-01 05:53:00,
2013-03-31 23:02:00,48.0,30.0,-100.00,North,356,2.0,13.0,50,0.00,,,0.00,0.000000,,2013-04-01 06:02:00,
2013-03-31 23:12:00,48.0,30.0,-100.00,North,356,2.0,13.0,50,0.00,,,0.00,0.000000,,2013-04-01 06:12:00,
2013-03-31 23:22:00,48.0,30.0,-100.00,North,356,2.0,13.0,50,0.00,,,0.00,0.000000,,2013-04-01 06:22:00,
2013-03-31 23:32:00,48.0,30.0,-100.00,North,356,2.0,13.0,50,0.00,,,0.00,0.000000,,2013-04-01 06:32:00,
2013-03-31 23:52:00,49.0,30.0,-100.00,North,9,5.0,11.0,48,0.00,,,0.00,0.000000,,2013-04-01 06:52:00,